createdAt,value
2024-04-19T00:02:17.200Z,100716.59
2024-04-19T00:04:43.836Z,100716.14
2024-04-19T00:07:10.436Z,100711.76
2024-04-19T00:09:46.426Z,100708.62
2024-04-19T00:12:13.978Z,100711.88
2024-04-19T00:14:40.848Z,100715.05
2024-04-19T00:17:07.554Z,100711.79
2024-04-19T00:19:34.153Z,100709.91
2024-04-19T00:22:00.776Z,100711.02
2024-04-19T00:24:27.391Z,100711.80
2024-04-19T00:26:54.112Z,100708.34
2024-04-19T00:29:40.653Z,100704.08
2024-04-19T00:32:07.713Z,100708.18
2024-04-19T00:34:34.562Z,100705.09
2024-04-19T00:37:01.459Z,100703.73
2024-04-19T00:39:28.200Z,100706.12
2024-04-19T00:41:54.919Z,100703.10
2024-04-19T00:44:21.671Z,100705.56
2024-04-19T00:46:48.650Z,100707.34
2024-04-19T00:49:32.340Z,100704.79
2024-04-19T00:52:00.031Z,100702.35
2024-04-19T00:54:26.757Z,100702.42
2024-04-19T00:56:53.792Z,100704.80
2024-04-19T00:59:20.837Z,100703.21
2024-04-19T01:01:47.736Z,100705.82
2024-04-19T01:04:15.140Z,100703.30
2024-04-19T01:06:41.953Z,100710.58
2024-04-19T01:09:08.836Z,100709.56
2024-04-19T01:11:35.779Z,100706.88
2024-04-19T01:14:02.491Z,100708.73
2024-04-19T01:16:29.272Z,100707.91
2024-04-19T01:18:56.049Z,100709.05
2024-04-19T01:21:23.251Z,100705.05
2024-04-19T01:23:54.724Z,100708.36
2024-04-19T01:26:21.441Z,100710.77
2024-04-19T01:28:48.162Z,100709.27
2024-04-19T01:31:14.899Z,100715.24
2024-04-19T01:33:41.672Z,100720.93
2024-04-19T01:36:08.666Z,100720.56
2024-04-19T01:38:47.639Z,100727.27
2024-04-19T01:41:14.561Z,100731.44
2024-04-19T01:43:43.546Z,100729.11
2024-04-19T01:46:10.300Z,100730.16
2024-04-19T01:48:37.079Z,100724.43
2024-04-19T01:51:03.973Z,100726.38
2024-04-19T01:53:33.102Z,100726.92
2024-04-19T01:55:59.941Z,100729.92
2024-04-19T01:58:41.818Z,100736.05
2024-04-19T02:01:09.025Z,100737.99
2024-04-19T02:03:35.967Z,100736.46
2024-04-19T02:06:13.553Z,100736.27
2024-04-19T02:08:40.610Z,100735.16
2024-04-19T02:11:07.434Z,100736.02
2024-04-19T02:13:34.492Z,100732.05
2024-04-19T02:16:01.592Z,100729.52
2024-04-19T02:18:28.574Z,100728.17
2024-04-19T02:20:55.411Z,100728.80
2024-04-19T02:23:41.982Z,100724.23
2024-04-19T02:26:09.740Z,100727.58
2024-04-19T02:28:57.884Z,100726.02
2024-04-19T02:31:24.870Z,100726.43
2024-04-19T02:33:51.682Z,100734.46
2024-04-19T02:36:18.596Z,100732.06
2024-04-19T02:38:45.389Z,100734.90
2024-04-19T02:41:12.135Z,100734.67
2024-04-19T02:43:38.873Z,100737.80
2024-04-19T02:46:06.755Z,100743.07
2024-04-19T02:48:34.186Z,100742.43
2024-04-19T02:51:02.560Z,100744.17
2024-04-19T02:53:29.281Z,100741.73
2024-04-19T02:55:56.636Z,100744.10
2024-04-19T02:58:23.398Z,100744.59
2024-04-19T03:00:50.205Z,100742.98
2024-04-19T03:03:17.195Z,100744.17
2024-04-19T03:05:45.241Z,100745.23
2024-04-19T03:08:11.974Z,100744.34
2024-04-19T03:10:39.543Z,100745.09
2024-04-19T03:13:09.480Z,100752.25
2024-04-19T03:15:36.459Z,100752.80
2024-04-19T03:18:05.941Z,100746.20
2024-04-19T03:20:32.660Z,100747.73
2024-04-19T03:22:59.372Z,100749.23
2024-04-19T03:25:26.054Z,100750.21
2024-04-19T03:27:53.191Z,100750.58
2024-04-19T03:30:27.489Z,100751.06
2024-04-19T03:32:54.535Z,100752.23
2024-04-19T03:35:21.454Z,100747.27
2024-04-19T03:37:48.158Z,100748.66
2024-04-19T03:40:15.060Z,100745.65
2024-04-19T03:42:47.144Z,100747.98
2024-04-19T03:45:32.498Z,100749.33
2024-04-19T03:47:59.402Z,100747.73
2024-04-19T03:50:26.092Z,100745.11
2024-04-19T03:52:57.959Z,100743.34
2024-04-19T03:55:25.430Z,100743.44
2024-04-19T03:57:52.383Z,100746.71
2024-04-19T04:00:22.730Z,100754.41
2024-04-19T04:02:53.821Z,100754.71
2024-04-19T04:05:20.574Z,100750.08
2024-04-19T04:07:47.194Z,100749.23
2024-04-19T04:10:13.930Z,100747.74
2024-04-19T04:12:40.802Z,100749.90
2024-04-19T04:15:08.545Z,100746.98
2024-04-19T04:17:35.842Z,100751.90
2024-04-19T04:20:04.577Z,100756.26
2024-04-19T04:22:31.187Z,100762.33
2024-04-19T04:24:57.934Z,100765.25
2024-04-19T04:27:24.920Z,100765.61
2024-04-19T04:29:51.720Z,100763.57
2024-04-19T04:32:18.477Z,100765.02
2024-04-19T04:34:45.441Z,100759.24
2024-04-19T04:37:12.142Z,100761.40
2024-04-19T04:39:38.918Z,100761.70
2024-04-19T04:42:06.443Z,100761.30
2024-04-19T04:44:34.260Z,100764.75
2024-04-19T04:47:01.327Z,100767.73
2024-04-19T04:49:28.344Z,100771.06
2024-04-19T04:51:55.175Z,100770.00
2024-04-19T04:54:22.043Z,100770.58
2024-04-19T04:56:48.955Z,100774.30
2024-04-19T04:59:15.602Z,100777.42
2024-04-19T05:01:42.307Z,100775.05
2024-04-19T05:04:09.933Z,100775.33
2024-04-19T05:06:37.170Z,100775.48
2024-04-19T05:09:04.571Z,100775.89
2024-04-19T05:11:31.409Z,100774.41
2024-04-19T05:13:58.131Z,100775.63
2024-04-19T05:16:24.899Z,100777.65
2024-04-19T05:18:52.693Z,100783.18
2024-04-19T05:21:19.562Z,100784.08
2024-04-19T05:23:47.416Z,100785.39
2024-04-19T05:26:14.215Z,100785.89
2024-04-19T05:28:41.170Z,100789.05
2024-04-19T05:31:07.858Z,100787.27
2024-04-19T05:33:37.854Z,100782.14
2024-04-19T05:36:05.477Z,100779.25
2024-04-19T05:38:32.312Z,100777.20
2024-04-19T05:40:59.056Z,100785.88
2024-04-19T05:43:25.793Z,100787.85
2024-04-19T05:45:53.341Z,100791.61
2024-04-19T05:48:22.238Z,100792.35
2024-04-19T05:50:49.415Z,100787.42
2024-04-19T05:53:16.199Z,100788.35
2024-04-19T05:55:45.144Z,100785.30
2024-04-19T05:58:12.202Z,100783.83
2024-04-19T06:00:39.442Z,100784.48
2024-04-19T06:03:06.305Z,100783.42
2024-04-19T06:05:33.203Z,100794.46
2024-04-19T06:08:00.049Z,100797.04
2024-04-19T06:10:26.884Z,100804.75
2024-04-19T06:12:54.386Z,100805.79
2024-04-19T06:15:21.332Z,100808.21
2024-04-19T06:17:49.503Z,100808.77
2024-04-19T06:20:16.405Z,100812.78
2024-04-19T06:22:43.082Z,100815.06
2024-04-19T06:25:10.094Z,100816.80
2024-04-19T06:27:36.751Z,100812.20
2024-04-19T06:30:03.989Z,100813.79
2024-04-19T06:32:30.750Z,100811.89
2024-04-19T06:34:57.664Z,100813.78
2024-04-19T06:37:25.431Z,100813.05
2024-04-19T06:39:59.460Z,100811.91
2024-04-19T06:42:32.333Z,100815.97
2024-04-19T06:44:58.990Z,100816.31
2024-04-19T06:47:25.674Z,100818.25
2024-04-19T06:49:52.343Z,100820.45
2024-04-19T06:52:19.075Z,100817.21
2024-04-19T06:54:45.868Z,100814.26
2024-04-19T06:57:15.095Z,100816.64
2024-04-19T06:59:43.329Z,100810.13
2024-04-19T07:02:10.410Z,100813.58
2024-04-19T07:04:37.276Z,100813.05
2024-04-19T07:07:04.416Z,100813.06
2024-04-19T07:09:31.527Z,100814.40
2024-04-19T07:11:58.250Z,100814.83
2024-04-19T07:14:25.273Z,100815.53
2024-04-19T07:16:55.735Z,100817.52
2024-04-19T07:19:22.876Z,100813.96
2024-04-19T07:21:49.584Z,100811.61
2024-04-19T07:24:16.455Z,100809.42
2024-04-19T07:26:43.370Z,100811.80
2024-04-19T07:29:10.327Z,100809.91
2024-04-19T07:31:37.157Z,100808.83
2024-04-19T07:34:03.810Z,100810.49
2024-04-19T07:36:31.006Z,100812.86
2024-04-19T07:38:57.811Z,100811.23
2024-04-19T07:41:24.520Z,100805.73
2024-04-19T07:43:55.834Z,100805.91
2024-04-19T07:46:27.533Z,100805.70
2024-04-19T07:48:54.228Z,100804.76
2024-04-19T07:51:20.922Z,100805.58
2024-04-19T07:53:47.644Z,100803.91
2024-04-19T07:56:14.797Z,100804.69
2024-04-19T07:58:41.529Z,100804.89
2024-04-19T08:01:08.428Z,100805.42
2024-04-19T08:03:36.725Z,100806.64
2024-04-19T08:06:04.410Z,100804.77
2024-04-19T08:08:31.177Z,100806.20
2024-04-19T08:10:57.790Z,100802.59
2024-04-19T08:13:25.592Z,100803.03
2024-04-19T08:15:52.423Z,100803.63
2024-04-19T08:18:19.353Z,100801.56
2024-04-19T08:20:46.021Z,100803.15
2024-04-19T08:23:14.032Z,100799.92
2024-04-19T08:25:41.538Z,100797.80
2024-04-19T08:28:08.247Z,100799.47
2024-04-19T08:30:34.922Z,100800.11
2024-04-19T08:33:01.756Z,100802.42
2024-04-19T08:35:28.464Z,100808.32
2024-04-19T08:37:55.038Z,100806.44
2024-04-19T08:40:22.510Z,100807.23
2024-04-19T08:42:49.323Z,100802.89
2024-04-19T08:45:17.328Z,100805.41
2024-04-19T08:47:47.568Z,100805.27
2024-04-19T08:50:17.150Z,100802.39
2024-04-19T08:53:08.996Z,100799.55
2024-04-19T08:55:33.888Z,100798.73
2024-04-19T08:58:00.926Z,100796.82
2024-04-19T09:00:27.764Z,100795.08
2024-04-19T09:02:54.725Z,100790.09
2024-04-19T09:05:21.779Z,100788.54
2024-04-19T09:07:48.751Z,100785.05
2024-04-19T09:10:21.399Z,100786.23
2024-04-19T09:12:48.226Z,100785.46
2024-04-19T09:15:15.298Z,100786.60
2024-04-19T09:17:42.273Z,100784.64
2024-04-19T09:20:09.979Z,100784.41
2024-04-19T09:22:36.870Z,100784.19
2024-04-19T09:25:04.504Z,100784.28
2024-04-19T09:27:32.459Z,100782.58
2024-04-19T09:30:02.269Z,100779.16
2024-04-19T09:32:30.007Z,100779.12
2024-04-19T09:34:57.061Z,100778.23
2024-04-19T09:37:24.280Z,100782.66
2024-04-19T09:39:53.839Z,100779.97
2024-04-19T09:42:20.852Z,100781.58
2024-04-19T09:44:51.767Z,100778.21
2024-04-19T09:47:19.415Z,100777.60
2024-04-19T09:49:47.287Z,100777.83
2024-04-19T09:52:22.118Z,100774.32
2024-04-19T09:55:02.589Z,100771.48
2024-04-19T09:57:31.098Z,100768.27
2024-04-19T09:59:58.931Z,100757.50
2024-04-19T10:02:31.605Z,100759.60
2024-04-19T10:05:04.027Z,100751.86
2024-04-19T10:07:31.777Z,100751.35
2024-04-19T10:10:00.314Z,100748.13
2024-04-19T10:12:28.029Z,100745.45
2024-04-19T10:14:54.657Z,100744.48
2024-04-19T10:17:21.505Z,100740.95
2024-04-19T10:19:52.962Z,100738.48
2024-04-19T10:22:23.287Z,100734.83
2024-04-19T10:25:01.701Z,100730.09
2024-04-19T10:27:33.718Z,100728.94
2024-04-19T10:30:01.498Z,100732.45
2024-04-19T10:32:29.650Z,100724.63
2024-04-19T10:34:57.178Z,100719.94
2024-04-19T10:37:23.891Z,100716.23
2024-04-19T10:39:50.675Z,100713.33
2024-04-19T10:42:22.198Z,100704.98
2024-04-19T10:44:49.959Z,100701.61
2024-04-19T10:47:18.034Z,100694.66
2024-04-19T10:49:45.364Z,100693.04
2024-04-19T10:52:12.374Z,100687.65
2024-04-19T10:54:39.105Z,100683.27
2024-04-19T10:57:05.952Z,100683.86
2024-04-19T10:59:32.936Z,100679.63
2024-04-19T11:02:02.937Z,100678.05
2024-04-19T11:04:30.108Z,100667.83
2024-04-19T11:06:57.048Z,100659.55
2024-04-19T11:09:24.331Z,100652.64
2024-04-19T11:11:51.187Z,100652.09
2024-04-19T11:14:20.265Z,100643.92
2024-04-19T11:16:47.395Z,100637.86
2024-04-19T11:19:17.556Z,100635.30
2024-04-19T11:21:45.634Z,100626.36
2024-04-19T11:24:12.384Z,100613.89
2024-04-19T11:26:39.123Z,100608.98
2024-04-19T11:29:07.217Z,100600.45
2024-04-19T11:31:35.570Z,100599.23
2024-04-19T11:34:02.520Z,100594.64
2024-04-19T11:36:29.610Z,100588.81
2024-04-19T11:38:57.080Z,100585.66
2024-04-19T11:41:23.891Z,100578.88
2024-04-19T11:43:50.486Z,100566.94
2024-04-19T11:46:25.952Z,100560.48
2024-04-19T11:48:52.786Z,100560.39
2024-04-19T11:51:20.486Z,100563.48
2024-04-19T11:53:47.290Z,100565.41
2024-04-19T11:56:14.297Z,100556.69
2024-04-19T11:58:41.192Z,100551.27
2024-04-19T12:01:08.125Z,100541.45
2024-04-19T12:03:35.288Z,100534.02
2024-04-19T12:06:03.447Z,100528.41
2024-04-19T12:08:30.246Z,100531.66
2024-04-19T12:10:57.384Z,100528.08
2024-04-19T12:16:29.749Z,100516.44
2024-04-19T12:18:40.964Z,100509.24
2024-04-19T12:21:08.724Z,100510.20
2024-04-19T12:23:35.930Z,100502.73
2024-04-19T12:26:03.351Z,100490.07
2024-04-19T12:28:30.508Z,100492.31
2024-04-19T12:30:58.066Z,100496.52
2024-04-19T12:33:24.846Z,100494.63
2024-04-19T12:35:51.572Z,100489.83
2024-04-19T12:38:18.418Z,100488.48
2024-04-19T12:40:45.153Z,100480.28
2024-04-19T12:43:12.191Z,100475.77
2024-04-19T12:45:38.978Z,100474.99
2024-04-19T12:48:08.048Z,100479.95
2024-04-19T12:50:38.139Z,100464.74
2024-04-19T12:53:05.684Z,100466.90
2024-04-19T12:55:33.176Z,100455.46
2024-04-19T12:58:00.844Z,100449.91
2024-04-19T13:00:29.245Z,100448.77
2024-04-19T13:02:57.305Z,100439.07
2024-04-19T13:05:24.634Z,100429.23
2024-04-19T13:07:51.390Z,100422.20
2024-04-19T13:10:22.835Z,100422.30
2024-04-19T13:12:49.772Z,100409.36
2024-04-19T13:15:16.918Z,100402.86
2024-04-19T13:17:44.397Z,100396.73
2024-04-19T13:20:11.366Z,100387.10
2024-04-19T13:22:38.091Z,100378.71
2024-04-19T13:25:05.925Z,100377.58
2024-04-19T13:27:32.761Z,100376.80
2024-04-19T13:30:00.587Z,100369.83
2024-04-19T13:32:27.483Z,100366.28
2024-04-19T13:34:54.166Z,100361.73
2024-04-19T13:37:24.346Z,100356.50
2024-04-19T13:39:51.144Z,100346.77
2024-04-19T13:42:18.155Z,100344.38
2024-04-19T13:44:44.968Z,100338.82
2024-04-19T13:47:13.406Z,100337.65
2024-04-19T13:49:41.487Z,100335.75
2024-04-19T13:52:08.974Z,100328.28
2024-04-19T13:54:35.740Z,100323.31
2024-04-19T13:57:02.883Z,100325.92
2024-04-19T13:59:29.714Z,100327.68
2024-04-19T14:01:56.940Z,100322.44
2024-04-19T14:04:23.853Z,100322.74
2024-04-19T14:06:50.806Z,100305.61
2024-04-19T14:09:17.588Z,100290.45
2024-04-19T14:11:45.804Z,100281.64
2024-04-19T14:14:12.524Z,100274.31
2024-04-19T14:16:39.474Z,100266.95
2024-04-19T14:19:06.239Z,100269.34
2024-04-19T14:21:33.145Z,100264.92
2024-04-19T14:23:59.857Z,100262.90
2024-04-19T14:26:26.532Z,100259.75
2024-04-19T14:28:53.245Z,100250.38
2024-04-19T14:31:20.011Z,100250.75
2024-04-19T14:33:46.856Z,100241.19
2024-04-19T14:36:13.665Z,100237.41
2024-04-19T14:38:40.817Z,100222.91
2024-04-19T14:41:08.490Z,100215.43
2024-04-19T14:43:35.558Z,100206.52
2024-04-19T14:46:02.492Z,100203.39
2024-04-19T14:48:29.641Z,100200.02
2024-04-19T14:50:56.562Z,100196.49
2024-04-19T14:53:23.205Z,100190.21
2024-04-19T14:55:49.932Z,100184.64
2024-04-19T14:58:16.774Z,100183.63
2024-04-19T15:00:43.706Z,100175.60
2024-04-19T15:03:10.585Z,100167.95
2024-04-19T15:05:37.296Z,100164.06
2024-04-19T15:08:10.211Z,100155.10
2024-04-19T15:10:37.334Z,100157.23
2024-04-19T15:13:04.808Z,100154.74
2024-04-19T15:15:31.795Z,100161.23
2024-04-19T15:17:59.871Z,100156.45
2024-04-19T15:20:26.647Z,100149.35
2024-04-19T15:22:55.256Z,100145.75
2024-04-19T15:25:21.997Z,100140.31
2024-04-19T15:27:48.749Z,100146.45
2024-04-19T15:30:15.756Z,100132.84
2024-04-19T15:32:43.402Z,100131.08
2024-04-19T15:35:11.906Z,100129.15
2024-04-19T15:37:38.740Z,100122.09
2024-04-19T15:40:06.841Z,100115.70
2024-04-19T15:42:36.713Z,100114.23
2024-04-19T15:45:04.413Z,100112.33
2024-04-19T15:47:31.294Z,100102.71
2024-04-19T15:49:58.086Z,100099.48
2024-04-19T15:52:24.807Z,100095.00
2024-04-19T15:54:53.486Z,100091.36
2024-04-19T15:57:20.461Z,100082.68
2024-04-19T15:59:47.192Z,100075.45
2024-04-19T16:02:14.576Z,100073.91
2024-04-19T16:04:41.392Z,100073.76
2024-04-19T16:07:08.244Z,100087.21
2024-04-19T16:09:35.229Z,100074.66
2024-04-19T16:12:02.007Z,100068.60
2024-04-19T16:14:28.800Z,100069.13
2024-04-19T16:16:55.636Z,100066.77
2024-04-19T16:19:24.308Z,100064.80
2024-04-19T16:21:50.931Z,100057.68
2024-04-19T16:24:17.595Z,100057.45
2024-04-19T16:26:44.304Z,100067.39
2024-04-19T16:29:11.459Z,100066.14
2024-04-19T16:31:38.543Z,100064.48
2024-04-19T16:34:05.310Z,100057.30
2024-04-19T16:36:32.202Z,100056.30
2024-04-19T16:38:59.013Z,100053.64
2024-04-19T16:41:25.753Z,100053.89
2024-04-19T16:43:52.488Z,100054.45
2024-04-19T16:46:19.235Z,100049.02
2024-04-19T16:48:46.001Z,100047.29
2024-04-19T16:51:16.179Z,100045.63
2024-04-19T16:53:43.308Z,100040.36
2024-04-19T16:56:10.079Z,100037.36
2024-04-19T16:58:36.825Z,100034.64
2024-04-19T17:01:03.664Z,100031.52
2024-04-19T17:03:30.788Z,100029.30
2024-04-19T17:05:57.657Z,100026.92
2024-04-19T17:08:24.607Z,100024.05
2024-04-19T17:10:51.447Z,100023.24
2024-04-19T17:13:18.212Z,100024.65
2024-04-19T17:15:45.104Z,100020.95
2024-04-19T17:18:12.211Z,100019.60
2024-04-19T17:20:41.356Z,100021.77
2024-04-19T17:23:08.440Z,100020.12
2024-04-19T17:25:35.166Z,100018.54
2024-04-19T17:28:01.953Z,100016.73
2024-04-19T17:30:28.972Z,100016.34
2024-04-19T17:32:55.995Z,100017.46
2024-04-19T17:35:22.955Z,100020.39
2024-04-19T17:37:49.573Z,100019.66
2024-04-19T17:40:16.434Z,100016.88
2024-04-19T17:42:43.077Z,100019.73
2024-04-19T17:45:09.801Z,100021.47
2024-04-19T17:47:36.640Z,100023.66
2024-04-19T17:50:04.957Z,100024.41
2024-04-19T17:52:32.583Z,100025.19
2024-04-19T17:54:59.374Z,100021.93
2024-04-19T17:57:28.248Z,100019.35
2024-04-19T17:59:55.046Z,100020.27
2024-04-19T18:02:22.563Z,100020.66
2024-04-19T18:04:49.399Z,100016.45
2024-04-19T18:07:16.116Z,100018.63
2024-04-19T18:09:42.866Z,100017.61
2024-04-19T18:12:09.682Z,100019.70
2024-04-19T18:14:36.413Z,100020.61
2024-04-19T18:17:03.318Z,100016.41
2024-04-19T18:19:30.227Z,100015.08
2024-04-19T18:21:57.413Z,100012.48
2024-04-19T18:24:28.110Z,100009.08
2024-04-19T18:26:55.478Z,100011.55
2024-04-19T18:29:25.557Z,100010.55
2024-04-19T18:31:52.760Z,100006.64
2024-04-19T18:34:21.307Z,100005.29
2024-04-19T18:36:48.514Z,100001.41
2024-04-19T18:39:16.300Z,99999.67
2024-04-19T18:41:44.867Z,99997.74
2024-04-19T18:44:12.031Z,99997.39
2024-04-19T18:46:38.881Z,99993.13
2024-04-19T18:49:09.475Z,99993.58
2024-04-19T18:51:36.413Z,99995.71
2024-04-19T18:54:03.408Z,99997.79
2024-04-19T18:56:30.159Z,99996.77
2024-04-19T18:58:56.810Z,100001.46
2024-04-19T19:01:23.540Z,100003.87
2024-04-19T19:03:50.542Z,100007.04
2024-04-19T19:06:17.820Z,100009.19
2024-04-19T19:08:44.544Z,100011.11
2024-04-19T19:11:15.032Z,100014.29
2024-04-19T19:13:44.571Z,100020.90
2024-04-19T19:16:11.358Z,100019.20
2024-04-19T19:18:38.305Z,100021.83
2024-04-19T19:21:05.609Z,100020.07
2024-04-19T19:23:32.338Z,100017.72
2024-04-19T19:26:04.435Z,100017.48
2024-04-19T19:28:31.480Z,100017.82
2024-04-19T19:30:58.981Z,100018.89
2024-04-19T19:33:26.268Z,100019.97
2024-04-19T19:35:56.392Z,100018.13
2024-04-19T19:38:23.884Z,100016.98
2024-04-19T19:40:50.589Z,100015.52
2024-04-19T19:43:19.674Z,100014.82
2024-04-19T19:45:55.209Z,100011.26
2024-04-19T19:48:22.004Z,100012.30
2024-04-19T19:50:56.298Z,100008.17
2024-04-19T19:53:22.948Z,100006.84
2024-04-19T19:55:49.777Z,100000.37
2024-04-19T19:58:16.510Z,99998.89
2024-04-19T20:01:02.303Z,100000.02
2024-04-19T20:03:47.849Z,100000.52
2024-04-19T20:06:14.940Z,100000.64
2024-04-19T20:08:41.757Z,100002.78
2024-04-19T20:11:08.443Z,100006.44
2024-04-19T20:13:35.243Z,100004.41
2024-04-19T20:16:04.325Z,100006.23
2024-04-19T20:18:31.410Z,100010.75
2024-04-19T20:20:58.678Z,100012.34
2024-04-19T20:23:25.588Z,100011.45
2024-04-19T20:25:52.262Z,100007.80
2024-04-19T20:28:19.084Z,100004.45
2024-04-19T20:30:45.980Z,100005.61
2024-04-19T20:33:12.794Z,100000.38
2024-04-19T20:35:39.611Z,99999.56
2024-04-19T20:38:06.474Z,99996.21
2024-04-19T20:40:33.319Z,100000.30
2024-04-19T20:43:14.606Z,100003.16
2024-04-19T20:45:47.136Z,100001.96
2024-04-19T20:48:15.923Z,100005.27
2024-04-19T20:50:42.899Z,100007.59
2024-04-19T20:53:09.525Z,100009.89
2024-04-19T20:55:41.833Z,100014.64
2024-04-19T20:58:08.504Z,100009.59
2024-04-19T21:00:38.607Z,100002.70
2024-04-19T21:03:05.697Z,99999.56
2024-04-19T21:05:32.687Z,99999.75
2024-04-19T21:07:59.353Z,99997.82
2024-04-19T21:10:26.107Z,100000.48
2024-04-19T21:12:53.667Z,100000.05
2024-04-19T21:15:20.523Z,99995.44
2024-04-19T21:17:47.173Z,99992.02
2024-04-19T21:20:13.838Z,99987.23
2024-04-19T21:22:40.471Z,99984.85
2024-04-19T21:25:07.453Z,99981.47
2024-04-19T21:27:34.977Z,99978.94
2024-04-19T21:30:02.055Z,99971.84
2024-04-19T21:32:31.865Z,99971.84
2024-04-19T21:34:58.593Z,99960.63
2024-04-19T21:37:25.371Z,99957.81
2024-04-19T21:39:55.309Z,99957.14
2024-04-19T21:42:23.184Z,99953.41
2024-04-19T21:44:54.467Z,99954.73
2024-04-19T21:47:21.395Z,99957.60
2024-04-19T21:49:48.099Z,99955.35
2024-04-19T21:52:17.945Z,99956.52
2024-04-19T21:54:44.881Z,99956.54
2024-04-19T21:57:11.571Z,99955.82
2024-04-19T21:59:39.406Z,99954.13
2024-04-19T22:02:06.151Z,99946.34
2024-04-19T22:04:33.066Z,99942.02
2024-04-19T22:07:00.106Z,99936.98
2024-04-19T22:09:27.625Z,99933.65
2024-04-19T22:11:54.484Z,99931.29
2024-04-19T22:14:21.329Z,99928.45
2024-04-19T22:16:48.213Z,99927.31
2024-04-19T22:19:15.227Z,99924.47
2024-04-19T22:21:42.184Z,99914.58
2024-04-19T22:24:09.128Z,99912.81
2024-04-19T22:26:36.144Z,99908.77
2024-04-19T22:29:03.092Z,99905.03
2024-04-19T22:31:29.933Z,99905.27
2024-04-19T22:33:57.035Z,99911.48
2024-04-19T22:36:24.770Z,99907.57
2024-04-19T22:38:51.923Z,99906.52
2024-04-19T22:41:19.034Z,99910.39
2024-04-19T22:43:45.890Z,99915.95
2024-04-19T22:46:12.929Z,99914.23
2024-04-19T22:48:41.056Z,99915.20
2024-04-19T22:51:08.323Z,99920.83
2024-04-19T22:53:35.329Z,99921.70
2024-04-19T22:56:02.471Z,99921.61
2024-04-19T22:58:29.307Z,99917.80
2024-04-19T23:01:07.687Z,99913.86
2024-04-19T23:03:35.262Z,99912.83
2024-04-19T23:06:09.665Z,99912.34
2024-04-19T23:08:36.851Z,99906.94
2024-04-19T23:11:04.832Z,99907.45
2024-04-19T23:13:32.782Z,99906.80
2024-04-19T23:15:59.657Z,99899.73
2024-04-19T23:18:26.675Z,99898.68
2024-04-19T23:21:01.218Z,99894.85
2024-04-19T23:23:28.637Z,99894.17
2024-04-19T23:26:06.536Z,99891.64
2024-04-19T23:28:33.873Z,99891.54
2024-04-19T23:31:01.409Z,99890.71
2024-04-19T23:33:30.504Z,99888.09
2024-04-19T23:36:01.314Z,99883.27
2024-04-19T23:38:28.418Z,99880.55
2024-04-19T23:40:55.622Z,99876.00
2024-04-19T23:43:22.512Z,99873.73
2024-04-19T23:45:49.620Z,99871.77
2024-04-19T23:48:16.921Z,99867.45
2024-04-19T23:50:43.877Z,99868.08
2024-04-19T23:53:10.711Z,99868.07
2024-04-19T23:55:37.749Z,99873.90
2024-04-19T23:58:04.695Z,99873.41
